sensor_id;sensor_type;location;lat;lon;timestamp;P1;durP1;ratioP1;P2;durP2;ratioP2
35681;SDS011;21805;51.022;4.782;2023-08-17T09:18:30;12.32;;;5.10;;
35681;SDS011;21805;51.022;4.782;2023-08-17T14:21:44;23.45;;;14.48;;
35681;SDS011;21805;51.022;4.782;2023-08-17T14:24:44;22.08;;;15.50;;
35681;SDS011;21805;51.022;4.782;2023-08-17T14:28:06;17.67;;;13.40;;
35681;SDS011;21805;51.022;4.782;2023-08-17T14:31:44;19.83;;;13.30;;
35681;SDS011;21805;51.022;4.782;2023-08-17T15:11:14;19.77;;;12.18;;
35681;SDS011;21805;51.022;4.782;2023-08-17T15:14:06;23.15;;;12.73;;
35681;SDS011;21805;51.022;4.782;2023-08-17T15:16:48;20.95;;;13.68;;
35681;SDS011;21805;51.022;4.782;2023-08-17T15:27:20;20.73;;;13.38;;
35681;SDS011;21805;51.022;4.782;2023-08-17T15:29:45;25.20;;;14.13;;
35681;SDS011;21805;51.022;4.782;2023-08-17T15:32:11;26.88;;;14.63;;
35681;SDS011;21805;51.022;4.782;2023-08-17T15:34:37;20.58;;;14.07;;
35681;SDS011;21805;51.022;4.782;2023-08-17T15:37:03;31.10;;;15.63;;
35681;SDS011;21805;51.022;4.782;2023-08-17T15:39:28;26.00;;;14.95;;
35681;SDS011;21805;51.022;4.782;2023-08-17T15:41:55;25.38;;;15.15;;
35681;SDS011;21805;51.022;4.782;2023-08-17T15:44:27;25.00;;;14.05;;
35681;SDS011;21805;51.022;4.782;2023-08-17T15:46:55;23.27;;;14.45;;
35681;SDS011;21805;51.022;4.782;2023-08-17T15:49:23;24.63;;;15.80;;
35681;SDS011;21805;51.022;4.782;2023-08-17T15:51:49;27.40;;;15.93;;
35681;SDS011;21805;51.022;4.782;2023-08-17T15:54:15;26.33;;;15.43;;
35681;SDS011;21805;51.022;4.782;2023-08-17T15:56:40;23.00;;;14.88;;
35681;SDS011;21805;51.022;4.782;2023-08-17T15:59:06;23.17;;;14.13;;
35681;SDS011;21805;51.022;4.782;2023-08-17T16:01:32;18.73;;;12.48;;
35681;SDS011;21805;51.022;4.782;2023-08-17T16:03:58;21.63;;;14.05;;
35681;SDS011;21805;51.022;4.782;2023-08-17T16:06:24;27.85;;;16.90;;
35681;SDS011;21805;51.022;4.782;2023-08-17T16:08:49;28.02;;;15.60;;
35681;SDS011;21805;51.022;4.782;2023-08-17T16:11:16;29.02;;;16.75;;
35681;SDS011;21805;51.022;4.782;2023-08-17T16:13:43;28.38;;;16.98;;
35681;SDS011;21805;51.022;4.782;2023-08-17T16:16:09;25.50;;;15.52;;
35681;SDS011;21805;51.022;4.782;2023-08-17T16:18:35;27.02;;;16.08;;
35681;SDS011;21805;51.022;4.782;2023-08-17T16:21:02;20.48;;;12.90;;
35681;SDS011;21805;51.022;4.782;2023-08-17T16:23:29;24.77;;;16.73;;
35681;SDS011;21805;51.022;4.782;2023-08-17T16:26:04;28.83;;;16.15;;
35681;SDS011;21805;51.022;4.782;2023-08-17T16:28:30;26.27;;;16.85;;
35681;SDS011;21805;51.022;4.782;2023-08-17T16:30:56;28.13;;;16.65;;
35681;SDS011;21805;51.022;4.782;2023-08-17T16:33:22;27.45;;;15.15;;
35681;SDS011;21805;51.022;4.782;2023-08-17T16:35:47;27.48;;;15.50;;
35681;SDS011;21805;51.022;4.782;2023-08-17T16:38:14;23.15;;;16.20;;
35681;SDS011;21805;51.022;4.782;2023-08-17T16:56:16;34.55;;;16.70;;
35681;SDS011;21805;51.022;4.782;2023-08-17T17:13:25;24.63;;;17.23;;
35681;SDS011;21805;51.022;4.782;2023-08-17T17:54:54;23.92;;;17.63;;
35681;SDS011;21805;51.022;4.782;2023-08-17T17:57:36;26.58;;;19.17;;
35681;SDS011;21805;51.022;4.782;2023-08-17T18:00:06;27.85;;;20.05;;
35681;SDS011;21805;51.022;4.782;2023-08-17T18:02:36;28.08;;;19.63;;
35681;SDS011;21805;51.022;4.782;2023-08-17T18:05:04;25.65;;;19.23;;
35681;SDS011;21805;51.022;4.782;2023-08-17T18:07:35;28.25;;;20.08;;
35681;SDS011;21805;51.022;4.782;2023-08-17T18:10:00;27.55;;;20.27;;
35681;SDS011;21805;51.022;4.782;2023-08-17T18:12:31;28.60;;;19.67;;
35681;SDS011;21805;51.022;4.782;2023-08-17T18:15:03;29.67;;;20.50;;
35681;SDS011;21805;51.022;4.782;2023-08-17T18:17:35;26.67;;;19.45;;
35681;SDS011;21805;51.022;4.782;2023-08-17T18:22:31;27.90;;;18.98;;
35681;SDS011;21805;51.022;4.782;2023-08-17T18:27:27;26.38;;;19.00;;
35681;SDS011;21805;51.022;4.782;2023-08-17T18:29:55;28.02;;;19.00;;
35681;SDS011;21805;51.022;4.782;2023-08-17T18:37:49;25.95;;;19.02;;
35681;SDS011;21805;51.022;4.782;2023-08-17T18:42:52;26.10;;;18.33;;
35681;SDS011;21805;51.022;4.782;2023-08-17T18:48:16;26.63;;;18.40;;
35681;SDS011;21805;51.022;4.782;2023-08-17T18:50:42;25.63;;;17.73;;
35681;SDS011;21805;51.022;4.782;2023-08-17T18:53:08;26.33;;;17.52;;
35681;SDS011;21805;51.022;4.782;2023-08-17T18:55:46;26.33;;;18.15;;
35681;SDS011;21805;51.022;4.782;2023-08-17T18:58:18;26.23;;;17.45;;
35681;SDS011;21805;51.022;4.782;2023-08-17T19:00:48;27.48;;;17.98;;
35681;SDS011;21805;51.022;4.782;2023-08-17T19:03:17;20.75;;;15.80;;
35681;SDS011;21805;51.022;4.782;2023-08-17T19:05:46;21.83;;;15.23;;
35681;SDS011;21805;51.022;4.782;2023-08-17T19:08:15;25.38;;;16.42;;
35681;SDS011;21805;51.022;4.782;2023-08-17T19:10:42;27.02;;;17.40;;
35681;SDS011;21805;51.022;4.782;2023-08-17T19:13:12;20.23;;;15.75;;
35681;SDS011;21805;51.022;4.782;2023-08-17T19:15:50;19.23;;;16.20;;
35681;SDS011;21805;51.022;4.782;2023-08-17T19:18:16;20.95;;;14.75;;
35681;SDS011;21805;51.022;4.782;2023-08-17T19:23:31;23.73;;;17.15;;
35681;SDS011;21805;51.022;4.782;2023-08-17T19:26:00;23.63;;;18.00;;
35681;SDS011;21805;51.022;4.782;2023-08-17T19:28:28;24.95;;;16.15;;
35681;SDS011;21805;51.022;4.782;2023-08-17T19:31:09;32.65;;;18.50;;
35681;SDS011;21805;51.022;4.782;2023-08-17T19:33:37;26.13;;;17.58;;
35681;SDS011;21805;51.022;4.782;2023-08-17T19:36:10;27.92;;;16.55;;
35681;SDS011;21805;51.022;4.782;2023-08-17T19:38:36;26.42;;;18.13;;
35681;SDS011;21805;51.022;4.782;2023-08-17T19:41:08;31.23;;;19.02;;
35681;SDS011;21805;51.022;4.782;2023-08-17T19:43:40;30.08;;;20.45;;
35681;SDS011;21805;51.022;4.782;2023-08-17T19:48:33;28.50;;;18.38;;
35681;SDS011;21805;51.022;4.782;2023-08-17T19:50:59;31.27;;;19.02;;
35681;SDS011;21805;51.022;4.782;2023-08-17T22:26:05;45.83;;;26.25;;
35681;SDS011;21805;51.022;4.782;2023-08-17T22:28:31;46.25;;;26.05;;
35681;SDS011;21805;51.022;4.782;2023-08-17T22:33:38;44.70;;;26.35;;
35681;SDS011;21805;51.022;4.782;2023-08-17T22:36:04;47.45;;;27.60;;
35681;SDS011;21805;51.022;4.782;2023-08-17T22:41:02;46.35;;;26.70;;
35681;SDS011;21805;51.022;4.782;2023-08-17T22:43:29;46.75;;;26.40;;
35681;SDS011;21805;51.022;4.782;2023-08-17T22:45:55;46.92;;;27.05;;
35681;SDS011;21805;51.022;4.782;2023-08-17T22:48:21;43.75;;;25.35;;
35681;SDS011;21805;51.022;4.782;2023-08-17T22:53:17;45.95;;;25.83;;
35681;SDS011;21805;51.022;4.782;2023-08-17T22:55:44;42.33;;;24.88;;
35681;SDS011;21805;51.022;4.782;2023-08-17T22:58:12;42.33;;;25.80;;
35681;SDS011;21805;51.022;4.782;2023-08-17T23:00:44;46.00;;;24.52;;
35681;SDS011;21805;51.022;4.782;2023-08-17T23:05:39;37.33;;;23.60;;
35681;SDS011;21805;51.022;4.782;2023-08-17T23:08:08;35.80;;;20.90;;
35681;SDS011;21805;51.022;4.782;2023-08-17T23:10:36;44.65;;;25.23;;
35681;SDS011;21805;51.022;4.782;2023-08-17T23:15:36;38.63;;;22.25;;
35681;SDS011;21805;51.022;4.782;2023-08-17T23:18:04;43.30;;;25.88;;
35681;SDS011;21805;51.022;4.782;2023-08-17T23:20:36;39.67;;;23.77;;
35681;SDS011;21805;51.022;4.782;2023-08-17T23:23:02;37.97;;;23.92;;
35681;SDS011;21805;51.022;4.782;2023-08-17T23:25:28;34.25;;;21.33;;
35681;SDS011;21805;51.022;4.782;2023-08-17T23:27:54;34.75;;;22.77;;
35681;SDS011;21805;51.022;4.782;2023-08-17T23:30:22;36.53;;;22.73;;
35681;SDS011;21805;51.022;4.782;2023-08-17T23:32:48;40.20;;;23.95;;
35681;SDS011;21805;51.022;4.782;2023-08-17T23:37:51;44.20;;;23.13;;
35681;SDS011;21805;51.022;4.782;2023-08-17T23:40:20;38.17;;;25.27;;
35681;SDS011;21805;51.022;4.782;2023-08-17T23:42:48;42.75;;;24.38;;
35681;SDS011;21805;51.022;4.782;2023-08-17T23:45:20;42.17;;;26.00;;
35681;SDS011;21805;51.022;4.782;2023-08-17T23:47:47;37.65;;;23.92;;
35681;SDS011;21805;51.022;4.782;2023-08-17T23:50:16;38.70;;;25.40;;
35681;SDS011;21805;51.022;4.782;2023-08-17T23:55:14;42.53;;;25.40;;
35681;SDS011;21805;51.022;4.782;2023-08-17T23:57:41;47.95;;;25.25;;
